Terminal Aerodrome Forecast
Issued by NWS Sterling, VA

Home | Current Version | Previous Version | Text Only | Print | Product List | Glossary On
Versions: 1 2 3 4 5 6 7 8 9 10 11 12 13 14 15 16 17 18 19 20 21
565
FTUS41 KLWX 240831 AAA
TAFBWI
TAF AMD
KBWI 240831Z 2409/2512 17004KT P6SM FEW130 FEW250
     FM241400 20008KT P6SM SCT100 OVC150
     FM241900 20012G20KT P6SM BKN070
     FM242300 20008KT P6SM SCT060 BKN150
     FM250200 22006KT P6SM SCT060 BKN250 WS020/23035KT
     FM250500 23006KT P6SM SCT060 BKN250=

USA.gov is the U.S. government's official web portal to all federal, state and local government web resources and services.